sensor_id;sensor_type;location;lat;lon;timestamp;P1;durP1;ratioP1;P2;durP2;ratioP2
31262;SDS011;17892;52.080;9.006;2022-11-15T00:00:53;5.47;;;3.28;;
31262;SDS011;17892;52.080;9.006;2022-11-15T00:03:20;5.13;;;3.20;;
31262;SDS011;17892;52.080;9.006;2022-11-15T00:05:48;5.57;;;3.15;;
31262;SDS011;17892;52.080;9.006;2022-11-15T00:08:15;5.57;;;2.95;;
31262;SDS011;17892;52.080;9.006;2022-11-15T00:10:41;5.13;;;2.55;;
31262;SDS011;17892;52.080;9.006;2022-11-15T00:13:07;4.05;;;2.60;;
31262;SDS011;17892;52.080;9.006;2022-11-15T00:15:38;4.50;;;2.20;;
31262;SDS011;17892;52.080;9.006;2022-11-15T00:18:05;6.20;;;2.92;;
31262;SDS011;17892;52.080;9.006;2022-11-15T00:20:36;5.53;;;3.03;;
31262;SDS011;17892;52.080;9.006;2022-11-15T00:23:03;5.22;;;2.63;;
31262;SDS011;17892;52.080;9.006;2022-11-15T00:25:29;6.13;;;2.80;;
31262;SDS011;17892;52.080;9.006;2022-11-15T00:27:56;5.05;;;2.83;;
31262;SDS011;17892;52.080;9.006;2022-11-15T00:30:22;6.70;;;3.35;;
31262;SDS011;17892;52.080;9.006;2022-11-15T00:32:48;5.20;;;3.10;;
31262;SDS011;17892;52.080;9.006;2022-11-15T00:35:14;6.72;;;3.70;;
31262;SDS011;17892;52.080;9.006;2022-11-15T00:37:40;4.78;;;2.83;;
31262;SDS011;17892;52.080;9.006;2022-11-15T00:40:06;8.32;;;4.18;;
31262;SDS011;17892;52.080;9.006;2022-11-15T00:42:33;6.60;;;4.47;;
31262;SDS011;17892;52.080;9.006;2022-11-15T00:44:59;8.48;;;3.63;;
31262;SDS011;17892;52.080;9.006;2022-11-15T00:47:25;7.38;;;4.07;;
31262;SDS011;17892;52.080;9.006;2022-11-15T00:49:50;6.13;;;3.42;;
31262;SDS011;17892;52.080;9.006;2022-11-15T00:52:16;7.15;;;3.95;;
31262;SDS011;17892;52.080;9.006;2022-11-15T00:54:42;5.70;;;3.60;;
31262;SDS011;17892;52.080;9.006;2022-11-15T00:57:08;6.60;;;3.67;;
31262;SDS011;17892;52.080;9.006;2022-11-15T00:59:34;7.18;;;4.43;;
31262;SDS011;17892;52.080;9.006;2022-11-15T01:01:59;6.65;;;4.20;;
31262;SDS011;17892;52.080;9.006;2022-11-15T01:04:26;6.95;;;3.90;;
31262;SDS011;17892;52.080;9.006;2022-11-15T01:06:52;7.40;;;4.05;;
31262;SDS011;17892;52.080;9.006;2022-11-15T01:09:18;6.88;;;4.35;;
31262;SDS011;17892;52.080;9.006;2022-11-15T01:11:44;7.20;;;4.60;;
31262;SDS011;17892;52.080;9.006;2022-11-15T01:14:09;7.05;;;4.47;;
31262;SDS011;17892;52.080;9.006;2022-11-15T01:16:35;8.70;;;3.97;;
31262;SDS011;17892;52.080;9.006;2022-11-15T01:19:01;7.40;;;4.30;;
31262;SDS011;17892;52.080;9.006;2022-11-15T01:21:27;7.50;;;4.18;;
31262;SDS011;17892;52.080;9.006;2022-11-15T01:23:56;7.32;;;4.07;;
31262;SDS011;17892;52.080;9.006;2022-11-15T01:26:22;8.95;;;4.95;;
31262;SDS011;17892;52.080;9.006;2022-11-15T01:28:49;7.88;;;5.03;;
31262;SDS011;17892;52.080;9.006;2022-11-15T01:31:17;7.25;;;4.70;;
31262;SDS011;17892;52.080;9.006;2022-11-15T01:33:45;7.78;;;4.57;;
31262;SDS011;17892;52.080;9.006;2022-11-15T01:36:15;9.00;;;4.32;;
31262;SDS011;17892;52.080;9.006;2022-11-15T01:38:44;7.60;;;4.22;;
31262;SDS011;17892;52.080;9.006;2022-11-15T01:41:16;9.25;;;4.40;;
31262;SDS011;17892;52.080;9.006;2022-11-15T01:43:48;8.35;;;5.03;;
31262;SDS011;17892;52.080;9.006;2022-11-15T01:48:46;8.88;;;4.78;;
31262;SDS011;17892;52.080;9.006;2022-11-15T01:51:14;7.57;;;4.70;;
31262;SDS011;17892;52.080;9.006;2022-11-15T01:53:43;7.65;;;4.75;;
31262;SDS011;17892;52.080;9.006;2022-11-15T01:56:16;7.32;;;4.03;;
31262;SDS011;17892;52.080;9.006;2022-11-15T01:58:46;7.82;;;4.88;;
31262;SDS011;17892;52.080;9.006;2022-11-15T02:01:17;8.55;;;5.30;;
31262;SDS011;17892;52.080;9.006;2022-11-15T02:03:48;9.95;;;5.75;;
31262;SDS011;17892;52.080;9.006;2022-11-15T02:06:19;9.32;;;5.70;;
31262;SDS011;17892;52.080;9.006;2022-11-15T02:08:46;8.27;;;5.28;;
31262;SDS011;17892;52.080;9.006;2022-11-15T02:11:12;8.45;;;5.53;;
31262;SDS011;17892;52.080;9.006;2022-11-15T02:13:38;7.95;;;5.28;;
31262;SDS011;17892;52.080;9.006;2022-11-15T02:16:08;9.98;;;6.13;;
31262;SDS011;17892;52.080;9.006;2022-11-15T02:18:59;10.32;;;6.10;;
31262;SDS011;17892;52.080;9.006;2022-11-15T02:42:41;9.88;;;5.55;;
31262;SDS011;17892;52.080;9.006;2022-11-15T02:45:35;8.05;;;4.88;;
31262;SDS011;17892;52.080;9.006;2022-11-15T02:48:16;9.88;;;5.85;;
31262;SDS011;17892;52.080;9.006;2022-11-15T02:50:44;7.43;;;4.68;;
31262;SDS011;17892;52.080;9.006;2022-11-15T02:53:10;10.27;;;5.88;;
31262;SDS011;17892;52.080;9.006;2022-11-15T02:55:37;9.15;;;4.93;;
31262;SDS011;17892;52.080;9.006;2022-11-15T03:01:10;8.95;;;4.47;;
31262;SDS011;17892;52.080;9.006;2022-11-15T03:10:25;9.80;;;5.13;;
31262;SDS011;17892;52.080;9.006;2022-11-15T03:13:27;10.13;;;5.65;;
31262;SDS011;17892;52.080;9.006;2022-11-15T03:16:15;9.80;;;5.30;;
31262;SDS011;17892;52.080;9.006;2022-11-15T03:19:19;10.20;;;5.13;;
31262;SDS011;17892;52.080;9.006;2022-11-15T03:21:55;8.40;;;5.55;;
31262;SDS011;17892;52.080;9.006;2022-11-15T03:24:25;7.43;;;5.15;;
31262;SDS011;17892;52.080;9.006;2022-11-15T03:26:53;8.35;;;4.60;;
31262;SDS011;17892;52.080;9.006;2022-11-15T03:29:22;8.60;;;5.47;;
31262;SDS011;17892;52.080;9.006;2022-11-15T03:32:07;8.93;;;5.88;;
31262;SDS011;17892;52.080;9.006;2022-11-15T03:37:36;7.68;;;5.10;;
31262;SDS011;17892;52.080;9.006;2022-11-15T03:40:14;8.70;;;5.55;;
31262;SDS011;17892;52.080;9.006;2022-11-15T03:42:43;8.95;;;5.47;;
31262;SDS011;17892;52.080;9.006;2022-11-15T03:45:55;8.55;;;5.53;;
31262;SDS011;17892;52.080;9.006;2022-11-15T03:48:49;8.07;;;4.85;;
31262;SDS011;17892;52.080;9.006;2022-11-15T03:51:18;8.75;;;5.03;;
31262;SDS011;17892;52.080;9.006;2022-11-15T03:53:45;9.68;;;5.18;;
31262;SDS011;17892;52.080;9.006;2022-11-15T03:56:11;8.90;;;5.35;;
31262;SDS011;17892;52.080;9.006;2022-11-15T03:58:37;7.55;;;4.85;;
31262;SDS011;17892;52.080;9.006;2022-11-15T04:01:03;8.10;;;5.15;;
31262;SDS011;17892;52.080;9.006;2022-11-15T04:03:28;8.00;;;5.55;;
31262;SDS011;17892;52.080;9.006;2022-11-15T04:05:54;7.68;;;4.90;;
31262;SDS011;17892;52.080;9.006;2022-11-15T04:08:20;9.75;;;5.80;;
31262;SDS011;17892;52.080;9.006;2022-11-15T04:10:49;7.00;;;4.60;;
31262;SDS011;17892;52.080;9.006;2022-11-15T04:13:14;8.40;;;4.55;;
31262;SDS011;17892;52.080;9.006;2022-11-15T04:15:40;9.57;;;5.07;;
31262;SDS011;17892;52.080;9.006;2022-11-15T04:18:06;7.63;;;4.97;;
31262;SDS011;17892;52.080;9.006;2022-11-15T04:20:32;7.70;;;4.53;;
31262;SDS011;17892;52.080;9.006;2022-11-15T04:23:20;7.13;;;4.47;;
31262;SDS011;17892;52.080;9.006;2022-11-15T04:26:14;10.20;;;5.45;;
31262;SDS011;17892;52.080;9.006;2022-11-15T04:28:43;10.30;;;5.00;;
31262;SDS011;17892;52.080;9.006;2022-11-15T04:31:28;7.25;;;4.28;;
31262;SDS011;17892;52.080;9.006;2022-11-15T04:33:54;7.10;;;4.55;;
31262;SDS011;17892;52.080;9.006;2022-11-15T04:36:20;13.23;;;4.78;;
31262;SDS011;17892;52.080;9.006;2022-11-15T04:39:05;7.63;;;4.72;;
31262;SDS011;17892;52.080;9.006;2022-11-15T04:41:31;8.00;;;4.55;;
31262;SDS011;17892;52.080;9.006;2022-11-15T04:43:57;9.63;;;5.35;;
31262;SDS011;17892;52.080;9.006;2022-11-15T04:46:23;6.97;;;4.35;;
31262;SDS011;17892;52.080;9.006;2022-11-15T04:48:50;7.90;;;4.57;;
31262;SDS011;17892;52.080;9.006;2022-11-15T04:51:16;8.50;;;5.10;;
31262;SDS011;17892;52.080;9.006;2022-11-15T04:53:43;9.23;;;4.57;;
31262;SDS011;17892;52.080;9.006;2022-11-15T04:56:08;8.73;;;4.47;;
31262;SDS011;17892;52.080;9.006;2022-11-15T04:58:34;7.13;;;4.50;;
31262;SDS011;17892;52.080;9.006;2022-11-15T05:01:13;7.43;;;3.92;;
31262;SDS011;17892;52.080;9.006;2022-11-15T05:03:40;9.18;;;5.15;;
31262;SDS011;17892;52.080;9.006;2022-11-15T05:06:25;5.93;;;3.80;;
31262;SDS011;17892;52.080;9.006;2022-11-15T05:08:51;6.63;;;3.67;;
31262;SDS011;17892;52.080;9.006;2022-11-15T05:11:17;5.65;;;3.38;;
31262;SDS011;17892;52.080;9.006;2022-11-15T05:13:43;6.18;;;4.00;;
31262;SDS011;17892;52.080;9.006;2022-11-15T05:16:08;5.15;;;3.47;;
31262;SDS011;17892;52.080;9.006;2022-11-15T05:18:34;7.35;;;3.55;;
31262;SDS011;17892;52.080;9.006;2022-11-15T05:21:04;7.22;;;4.03;;
31262;SDS011;17892;52.080;9.006;2022-11-15T05:23:31;6.53;;;3.80;;
31262;SDS011;17892;52.080;9.006;2022-11-15T05:26:01;7.68;;;3.92;;
31262;SDS011;17892;52.080;9.006;2022-11-15T05:28:28;6.00;;;3.88;;
31262;SDS011;17892;52.080;9.006;2022-11-15T05:31:00;6.90;;;4.05;;
31262;SDS011;17892;52.080;9.006;2022-11-15T05:33:33;8.95;;;4.60;;
31262;SDS011;17892;52.080;9.006;2022-11-15T05:36:07;8.70;;;4.68;;
31262;SDS011;17892;52.080;9.006;2022-11-15T05:38:43;6.85;;;3.53;;
31262;SDS011;17892;52.080;9.006;2022-11-15T05:41:10;8.18;;;3.63;;
31262;SDS011;17892;52.080;9.006;2022-11-15T05:43:37;7.07;;;3.72;;
31262;SDS011;17892;52.080;9.006;2022-11-15T05:46:05;6.13;;;3.20;;
31262;SDS011;17892;52.080;9.006;2022-11-15T05:48:31;5.60;;;3.17;;
31262;SDS011;17892;52.080;9.006;2022-11-15T05:50:59;5.50;;;2.95;;
31262;SDS011;17892;52.080;9.006;2022-11-15T05:53:25;4.78;;;3.05;;
31262;SDS011;17892;52.080;9.006;2022-11-15T05:55:51;5.30;;;3.13;;
31262;SDS011;17892;52.080;9.006;2022-11-15T05:58:18;5.20;;;3.53;;
31262;SDS011;17892;52.080;9.006;2022-11-15T06:00:45;5.97;;;3.25;;
31262;SDS011;17892;52.080;9.006;2022-11-15T06:03:11;4.80;;;2.90;;
31262;SDS011;17892;52.080;9.006;2022-11-15T06:05:39;4.70;;;3.05;;
31262;SDS011;17892;52.080;9.006;2022-11-15T06:08:05;5.18;;;3.10;;
31262;SDS011;17892;52.080;9.006;2022-11-15T06:10:31;4.90;;;2.92;;
31262;SDS011;17892;52.080;9.006;2022-11-15T06:12:58;6.15;;;3.38;;
31262;SDS011;17892;52.080;9.006;2022-11-15T06:15:28;6.20;;;3.33;;
31262;SDS011;17892;52.080;9.006;2022-11-15T06:17:57;5.95;;;3.58;;
31262;SDS011;17892;52.080;9.006;2022-11-15T06:20:24;6.45;;;3.90;;
31262;SDS011;17892;52.080;9.006;2022-11-15T06:22:57;6.22;;;3.78;;
31262;SDS011;17892;52.080;9.006;2022-11-15T06:25:24;5.75;;;3.53;;
31262;SDS011;17892;52.080;9.006;2022-11-15T06:27:51;5.97;;;3.85;;
31262;SDS011;17892;52.080;9.006;2022-11-15T06:30:18;5.32;;;3.10;;
31262;SDS011;17892;52.080;9.006;2022-11-15T06:32:45;5.68;;;3.50;;
31262;SDS011;17892;52.080;9.006;2022-11-15T06:35:10;6.35;;;3.72;;
31262;SDS011;17892;52.080;9.006;2022-11-15T06:37:37;5.97;;;3.83;;
31262;SDS011;17892;52.080;9.006;2022-11-15T06:40:02;4.55;;;2.97;;
31262;SDS011;17892;52.080;9.006;2022-11-15T06:42:28;12.57;;;4.55;;
31262;SDS011;17892;52.080;9.006;2022-11-15T06:44:54;7.00;;;3.40;;
31262;SDS011;17892;52.080;9.006;2022-11-15T06:47:20;5.68;;;3.08;;
31262;SDS011;17892;52.080;9.006;2022-11-15T06:49:45;6.50;;;3.80;;
31262;SDS011;17892;52.080;9.006;2022-11-15T06:52:11;5.63;;;3.35;;
31262;SDS011;17892;52.080;9.006;2022-11-15T06:54:37;5.45;;;3.13;;
31262;SDS011;17892;52.080;9.006;2022-11-15T06:57:03;6.65;;;3.00;;
31262;SDS011;17892;52.080;9.006;2022-11-15T06:59:29;7.32;;;3.67;;
31262;SDS011;17892;52.080;9.006;2022-11-15T07:01:55;5.18;;;3.88;;
31262;SDS011;17892;52.080;9.006;2022-11-15T07:04:21;6.72;;;3.38;;
31262;SDS011;17892;52.080;9.006;2022-11-15T07:06:47;6.82;;;4.03;;
31262;SDS011;17892;52.080;9.006;2022-11-15T07:09:14;6.32;;;3.60;;
31262;SDS011;17892;52.080;9.006;2022-11-15T07:11:40;5.47;;;3.10;;
31262;SDS011;17892;52.080;9.006;2022-11-15T07:14:06;6.25;;;3.42;;
31262;SDS011;17892;52.080;9.006;2022-11-15T07:16:31;7.38;;;3.30;;
31262;SDS011;17892;52.080;9.006;2022-11-15T07:18:57;5.20;;;2.92;;
31262;SDS011;17892;52.080;9.006;2022-11-15T07:21:23;5.40;;;3.00;;
31262;SDS011;17892;52.080;9.006;2022-11-15T07:23:49;4.88;;;2.83;;
31262;SDS011;17892;52.080;9.006;2022-11-15T07:26:14;4.78;;;2.58;;
31262;SDS011;17892;52.080;9.006;2022-11-15T07:28:40;4.47;;;2.55;;
31262;SDS011;17892;52.080;9.006;2022-11-15T07:31:06;5.55;;;3.10;;
31262;SDS011;17892;52.080;9.006;2022-11-15T07:33:33;4.97;;;2.38;;
31262;SDS011;17892;52.080;9.006;2022-11-15T07:36:00;4.70;;;2.70;;
31262;SDS011;17892;52.080;9.006;2022-11-15T07:38:28;5.03;;;2.80;;
31262;SDS011;17892;52.080;9.006;2022-11-15T07:40:58;5.53;;;2.78;;
31262;SDS011;17892;52.080;9.006;2022-11-15T07:43:27;5.43;;;2.85;;
31262;SDS011;17892;52.080;9.006;2022-11-15T07:45:54;5.70;;;2.65;;
31262;SDS011;17892;52.080;9.006;2022-11-15T07:48:21;4.35;;;2.53;;
31262;SDS011;17892;52.080;9.006;2022-11-15T07:50:47;4.93;;;2.47;;
31262;SDS011;17892;52.080;9.006;2022-11-15T07:53:13;4.68;;;2.15;;
31262;SDS011;17892;52.080;9.006;2022-11-15T07:55:40;5.30;;;2.40;;
31262;SDS011;17892;52.080;9.006;2022-11-15T07:58:07;4.75;;;2.38;;
31262;SDS011;17892;52.080;9.006;2022-11-15T08:03:06;5.18;;;2.40;;
31262;SDS011;17892;52.080;9.006;2022-11-15T08:05:38;5.00;;;2.55;;
31262;SDS011;17892;52.080;9.006;2022-11-15T08:08:06;5.43;;;2.65;;
31262;SDS011;17892;52.080;9.006;2022-11-15T08:10:34;3.92;;;2.40;;
31262;SDS011;17892;52.080;9.006;2022-11-15T08:13:04;3.72;;;2.10;;
31262;SDS011;17892;52.080;9.006;2022-11-15T08:15:33;4.65;;;2.60;;
31262;SDS011;17892;52.080;9.006;2022-11-15T08:18:01;4.93;;;2.10;;
31262;SDS011;17892;52.080;9.006;2022-11-15T08:20:29;6.18;;;2.55;;
31262;SDS011;17892;52.080;9.006;2022-11-15T08:22:57;3.50;;;2.00;;
31262;SDS011;17892;52.080;9.006;2022-11-15T08:25:25;3.88;;;2.25;;
31262;SDS011;17892;52.080;9.006;2022-11-15T08:27:53;3.72;;;1.85;;
31262;SDS011;17892;52.080;9.006;2022-11-15T08:30:24;4.32;;;2.17;;
31262;SDS011;17892;52.080;9.006;2022-11-15T08:32:50;4.38;;;2.42;;
31262;SDS011;17892;52.080;9.006;2022-11-15T08:35:17;3.63;;;1.92;;
31262;SDS011;17892;52.080;9.006;2022-11-15T08:37:44;4.78;;;2.30;;
31262;SDS011;17892;52.080;9.006;2022-11-15T08:40:10;3.13;;;1.85;;
31262;SDS011;17892;52.080;9.006;2022-11-15T08:42:36;3.70;;;2.20;;
31262;SDS011;17892;52.080;9.006;2022-11-15T08:45:02;3.53;;;1.77;;
31262;SDS011;17892;52.080;9.006;2022-11-15T08:47:28;3.22;;;1.70;;
31262;SDS011;17892;52.080;9.006;2022-11-15T08:49:54;3.03;;;1.77;;
31262;SDS011;17892;52.080;9.006;2022-11-15T08:52:20;3.50;;;2.03;;
31262;SDS011;17892;52.080;9.006;2022-11-15T08:54:46;3.75;;;1.90;;
31262;SDS011;17892;52.080;9.006;2022-11-15T08:57:12;3.97;;;2.10;;
31262;SDS011;17892;52.080;9.006;2022-11-15T08:59:38;6.20;;;2.03;;
31262;SDS011;17892;52.080;9.006;2022-11-15T09:02:04;9.48;;;2.13;;
31262;SDS011;17892;52.080;9.006;2022-11-15T09:04:30;5.18;;;2.33;;
31262;SDS011;17892;52.080;9.006;2022-11-15T09:06:56;4.57;;;2.42;;
31262;SDS011;17892;52.080;9.006;2022-11-15T09:09:22;3.63;;;2.28;;
31262;SDS011;17892;52.080;9.006;2022-11-15T09:11:48;3.72;;;1.90;;
31262;SDS011;17892;52.080;9.006;2022-11-15T09:14:14;3.33;;;1.67;;
31262;SDS011;17892;52.080;9.006;2022-11-15T09:16:40;3.05;;;1.73;;
31262;SDS011;17892;52.080;9.006;2022-11-15T09:19:05;4.55;;;1.98;;
31262;SDS011;17892;52.080;9.006;2022-11-15T09:21:31;4.55;;;2.10;;
31262;SDS011;17892;52.080;9.006;2022-11-15T09:23:57;4.00;;;2.15;;
31262;SDS011;17892;52.080;9.006;2022-11-15T09:26:23;3.70;;;1.80;;
31262;SDS011;17892;52.080;9.006;2022-11-15T09:28:49;3.33;;;1.63;;
31262;SDS011;17892;52.080;9.006;2022-11-15T09:31:15;3.33;;;1.90;;
31262;SDS011;17892;52.080;9.006;2022-11-15T09:33:44;3.53;;;2.10;;
31262;SDS011;17892;52.080;9.006;2022-11-15T09:36:10;4.07;;;1.90;;
31262;SDS011;17892;52.080;9.006;2022-11-15T09:38:36;3.28;;;1.90;;
31262;SDS011;17892;52.080;9.006;2022-11-15T09:41:10;4.47;;;2.25;;
31262;SDS011;17892;52.080;9.006;2022-11-15T09:44:00;5.93;;;2.35;;
31262;SDS011;17892;52.080;9.006;2022-11-15T09:49:12;3.03;;;1.70;;
31262;SDS011;17892;52.080;9.006;2022-11-15T09:51:44;3.40;;;1.63;;
31262;SDS011;17892;52.080;9.006;2022-11-15T09:54:31;3.30;;;1.48;;
31262;SDS011;17892;52.080;9.006;2022-11-15T09:57:11;3.47;;;1.88;;
31262;SDS011;17892;52.080;9.006;2022-11-15T10:05:36;3.50;;;1.60;;
31262;SDS011;17892;52.080;9.006;2022-11-15T10:10:57;3.17;;;1.48;;
31262;SDS011;17892;52.080;9.006;2022-11-15T10:13:26;4.00;;;1.60;;
31262;SDS011;17892;52.080;9.006;2022-11-15T10:16:00;3.63;;;1.42;;
31262;SDS011;17892;52.080;9.006;2022-11-15T10:21:34;4.05;;;1.70;;
31262;SDS011;17892;52.080;9.006;2022-11-15T10:24:23;4.25;;;1.73;;
31262;SDS011;17892;52.080;9.006;2022-11-15T10:26:54;2.45;;;1.38;;
31262;SDS011;17892;52.080;9.006;2022-11-15T10:29:21;3.75;;;1.30;;
31262;SDS011;17892;52.080;9.006;2022-11-15T10:31:50;4.25;;;1.40;;
31262;SDS011;17892;52.080;9.006;2022-11-15T10:34:17;3.08;;;1.20;;
31262;SDS011;17892;52.080;9.006;2022-11-15T10:36:46;4.80;;;1.60;;
31262;SDS011;17892;52.080;9.006;2022-11-15T10:39:23;2.55;;;0.98;;
31262;SDS011;17892;52.080;9.006;2022-11-15T10:41:49;6.82;;;1.50;;
31262;SDS011;17892;52.080;9.006;2022-11-15T10:44:19;3.10;;;1.23;;
31262;SDS011;17892;52.080;9.006;2022-11-15T10:49:28;3.15;;;1.45;;
31262;SDS011;17892;52.080;9.006;2022-11-15T10:54:44;2.50;;;1.25;;
31262;SDS011;17892;52.080;9.006;2022-11-15T10:57:25;2.72;;;1.20;;
31262;SDS011;17892;52.080;9.006;2022-11-15T10:59:55;2.30;;;1.10;;
31262;SDS011;17892;52.080;9.006;2022-11-15T11:05:00;3.08;;;1.05;;
31262;SDS011;17892;52.080;9.006;2022-11-15T11:07:32;2.47;;;1.38;;
31262;SDS011;17892;52.080;9.006;2022-11-15T11:10:04;2.25;;;1.15;;
31262;SDS011;17892;52.080;9.006;2022-11-15T11:12:44;2.92;;;1.13;;
31262;SDS011;17892;52.080;9.006;2022-11-15T11:15:12;2.45;;;1.00;;
31262;SDS011;17892;52.080;9.006;2022-11-15T11:17:51;2.20;;;1.15;;
31262;SDS011;17892;52.080;9.006;2022-11-15T11:20:58;2.33;;;1.00;;
31262;SDS011;17892;52.080;9.006;2022-11-15T11:23:53;2.78;;;1.05;;
31262;SDS011;17892;52.080;9.006;2022-11-15T11:30:21;3.17;;;1.40;;
31262;SDS011;17892;52.080;9.006;2022-11-15T11:33:16;2.20;;;1.20;;
31262;SDS011;17892;52.080;9.006;2022-11-15T11:38:28;3.58;;;1.42;;
31262;SDS011;17892;52.080;9.006;2022-11-15T11:47:12;2.72;;;1.40;;
31262;SDS011;17892;52.080;9.006;2022-11-15T11:49:49;2.47;;;1.10;;
31262;SDS011;17892;52.080;9.006;2022-11-15T11:52:40;2.67;;;1.30;;
31262;SDS011;17892;52.080;9.006;2022-11-15T12:00:53;2.35;;;1.20;;
31262;SDS011;17892;52.080;9.006;2022-11-15T12:06:47;2.40;;;1.33;;
31262;SDS011;17892;52.080;9.006;2022-11-15T12:12:12;2.97;;;1.38;;
31262;SDS011;17892;52.080;9.006;2022-11-15T12:14:51;2.40;;;1.10;;
31262;SDS011;17892;52.080;9.006;2022-11-15T12:17:38;2.78;;;1.30;;
31262;SDS011;17892;52.080;9.006;2022-11-15T12:20:17;2.30;;;1.15;;
31262;SDS011;17892;52.080;9.006;2022-11-15T12:22:56;2.20;;;1.20;;
31262;SDS011;17892;52.080;9.006;2022-11-15T12:28:55;2.20;;;1.00;;
31262;SDS011;17892;52.080;9.006;2022-11-15T12:31:24;3.75;;;1.10;;
31262;SDS011;17892;52.080;9.006;2022-11-15T12:34:05;2.90;;;1.30;;
31262;SDS011;17892;52.080;9.006;2022-11-15T12:36:45;2.33;;;1.17;;
31262;SDS011;17892;52.080;9.006;2022-11-15T12:39:13;3.58;;;1.10;;
31262;SDS011;17892;52.080;9.006;2022-11-15T12:41:40;2.45;;;0.93;;
31262;SDS011;17892;52.080;9.006;2022-11-15T13:04:53;2.00;;;0.88;;
31262;SDS011;17892;52.080;9.006;2022-11-15T13:17:45;3.15;;;1.20;;
31262;SDS011;17892;52.080;9.006;2022-11-15T13:22:47;3.78;;;1.10;;
31262;SDS011;17892;52.080;9.006;2022-11-15T13:28:19;2.03;;;0.90;;
31262;SDS011;17892;52.080;9.006;2022-11-15T13:30:56;2.45;;;1.00;;
31262;SDS011;17892;52.080;9.006;2022-11-15T13:33:25;2.45;;;0.80;;
31262;SDS011;17892;52.080;9.006;2022-11-15T13:36:04;2.17;;;0.90;;
31262;SDS011;17892;52.080;9.006;2022-11-15T13:39:33;2.60;;;1.02;;
31262;SDS011;17892;52.080;9.006;2022-11-15T13:41:54;1.88;;;1.00;;
31262;SDS011;17892;52.080;9.006;2022-11-15T13:44:24;2.50;;;0.82;;
31262;SDS011;17892;52.080;9.006;2022-11-15T13:49:39;2.70;;;1.02;;
31262;SDS011;17892;52.080;9.006;2022-11-15T13:52:15;1.95;;;0.90;;
31262;SDS011;17892;52.080;9.006;2022-11-15T13:54:46;1.90;;;1.00;;
31262;SDS011;17892;52.080;9.006;2022-11-15T14:02:57;1.60;;;0.77;;
31262;SDS011;17892;52.080;9.006;2022-11-15T14:08:42;2.15;;;1.00;;
31262;SDS011;17892;52.080;9.006;2022-11-15T14:11:49;2.50;;;1.10;;
31262;SDS011;17892;52.080;9.006;2022-11-15T14:14:20;2.50;;;1.10;;
31262;SDS011;17892;52.080;9.006;2022-11-15T14:16:50;2.10;;;0.98;;
31262;SDS011;17892;52.080;9.006;2022-11-15T14:24:43;2.75;;;1.00;;
31262;SDS011;17892;52.080;9.006;2022-11-15T14:27:25;2.83;;;1.13;;
31262;SDS011;17892;52.080;9.006;2022-11-15T14:29:54;2.30;;;1.05;;
31262;SDS011;17892;52.080;9.006;2022-11-15T14:32:30;3.55;;;1.50;;
31262;SDS011;17892;52.080;9.006;2022-11-15T14:35:16;3.60;;;1.35;;
31262;SDS011;17892;52.080;9.006;2022-11-15T14:37:44;2.28;;;1.08;;
31262;SDS011;17892;52.080;9.006;2022-11-15T14:40:15;3.13;;;0.90;;
31262;SDS011;17892;52.080;9.006;2022-11-15T14:42:44;1.70;;;0.90;;
31262;SDS011;17892;52.080;9.006;2022-11-15T14:45:15;3.83;;;1.45;;
31262;SDS011;17892;52.080;9.006;2022-11-15T14:47:47;2.60;;;0.98;;
31262;SDS011;17892;52.080;9.006;2022-11-15T14:50:13;4.38;;;1.40;;
31262;SDS011;17892;52.080;9.006;2022-11-15T14:52:44;1.73;;;0.90;;
31262;SDS011;17892;52.080;9.006;2022-11-15T14:57:49;2.30;;;1.13;;
31262;SDS011;17892;52.080;9.006;2022-11-15T15:00:15;3.63;;;1.10;;
31262;SDS011;17892;52.080;9.006;2022-11-15T15:02:43;2.72;;;1.02;;
31262;SDS011;17892;52.080;9.006;2022-11-15T15:05:17;2.10;;;0.90;;
31262;SDS011;17892;52.080;9.006;2022-11-15T15:08:09;1.98;;;0.95;;
31262;SDS011;17892;52.080;9.006;2022-11-15T15:10:37;2.63;;;1.08;;
31262;SDS011;17892;52.080;9.006;2022-11-15T15:13:06;2.28;;;1.02;;
31262;SDS011;17892;52.080;9.006;2022-11-15T15:15:55;2.97;;;0.88;;
31262;SDS011;17892;52.080;9.006;2022-11-15T15:18:20;2.10;;;1.00;;
31262;SDS011;17892;52.080;9.006;2022-11-15T15:20:47;2.92;;;1.00;;
31262;SDS011;17892;52.080;9.006;2022-11-15T15:23:22;3.33;;;1.10;;
31262;SDS011;17892;52.080;9.006;2022-11-15T15:25:50;2.20;;;1.05;;
31262;SDS011;17892;52.080;9.006;2022-11-15T15:28:17;1.67;;;0.88;;
31262;SDS011;17892;52.080;9.006;2022-11-15T15:30:43;2.55;;;0.95;;
31262;SDS011;17892;52.080;9.006;2022-11-15T15:33:09;2.25;;;1.00;;
31262;SDS011;17892;52.080;9.006;2022-11-15T15:35:34;2.42;;;1.10;;
31262;SDS011;17892;52.080;9.006;2022-11-15T15:38:00;1.80;;;0.90;;
31262;SDS011;17892;52.080;9.006;2022-11-15T15:40:27;2.47;;;1.05;;
31262;SDS011;17892;52.080;9.006;2022-11-15T15:42:56;3.05;;;1.25;;
31262;SDS011;17892;52.080;9.006;2022-11-15T15:45:22;3.92;;;1.05;;
31262;SDS011;17892;52.080;9.006;2022-11-15T15:47:50;2.33;;;1.05;;
31262;SDS011;17892;52.080;9.006;2022-11-15T15:50:24;2.22;;;1.10;;
31262;SDS011;17892;52.080;9.006;2022-11-15T15:52:50;2.30;;;0.90;;
31262;SDS011;17892;52.080;9.006;2022-11-15T15:55:18;2.00;;;0.93;;
31262;SDS011;17892;52.080;9.006;2022-11-15T15:57:44;3.20;;;1.67;;
31262;SDS011;17892;52.080;9.006;2022-11-15T16:00:11;1.98;;;0.80;;
31262;SDS011;17892;52.080;9.006;2022-11-15T16:02:38;1.92;;;0.95;;
31262;SDS011;17892;52.080;9.006;2022-11-15T16:05:04;3.22;;;1.00;;
31262;SDS011;17892;52.080;9.006;2022-11-15T16:07:31;2.53;;;0.80;;
31262;SDS011;17892;52.080;9.006;2022-11-15T16:09:57;2.53;;;1.02;;
31262;SDS011;17892;52.080;9.006;2022-11-15T16:12:29;1.65;;;0.73;;
31262;SDS011;17892;52.080;9.006;2022-11-15T16:14:59;1.95;;;0.82;;
31262;SDS011;17892;52.080;9.006;2022-11-15T16:17:30;2.28;;;0.93;;
31262;SDS011;17892;52.080;9.006;2022-11-15T16:20:03;2.85;;;0.90;;
31262;SDS011;17892;52.080;9.006;2022-11-15T16:22:30;2.47;;;1.00;;
31262;SDS011;17892;52.080;9.006;2022-11-15T16:24:56;2.00;;;0.88;;
31262;SDS011;17892;52.080;9.006;2022-11-15T16:27:22;1.60;;;0.80;;
31262;SDS011;17892;52.080;9.006;2022-11-15T16:29:48;2.35;;;0.90;;
31262;SDS011;17892;52.080;9.006;2022-11-15T16:32:14;2.85;;;1.00;;
31262;SDS011;17892;52.080;9.006;2022-11-15T16:34:40;1.77;;;0.80;;
31262;SDS011;17892;52.080;9.006;2022-11-15T16:37:40;2.08;;;0.80;;
31262;SDS011;17892;52.080;9.006;2022-11-15T16:39:58;1.45;;;0.60;;
31262;SDS011;17892;52.080;9.006;2022-11-15T16:42:24;1.45;;;0.63;;
31262;SDS011;17892;52.080;9.006;2022-11-15T16:44:50;1.90;;;0.80;;
31262;SDS011;17892;52.080;9.006;2022-11-15T16:47:16;2.65;;;1.00;;
31262;SDS011;17892;52.080;9.006;2022-11-15T16:49:46;2.67;;;1.08;;
31262;SDS011;17892;52.080;9.006;2022-11-15T16:52:12;2.08;;;0.93;;
31262;SDS011;17892;52.080;9.006;2022-11-15T16:54:38;2.13;;;0.82;;
31262;SDS011;17892;52.080;9.006;2022-11-15T16:57:04;2.58;;;0.95;;
31262;SDS011;17892;52.080;9.006;2022-11-15T16:59:30;1.80;;;0.70;;
31262;SDS011;17892;52.080;9.006;2022-11-15T17:01:57;2.08;;;0.90;;
31262;SDS011;17892;52.080;9.006;2022-11-15T17:04:23;2.58;;;0.98;;
31262;SDS011;17892;52.080;9.006;2022-11-15T17:06:48;1.75;;;0.70;;
31262;SDS011;17892;52.080;9.006;2022-11-15T17:09:18;1.83;;;0.70;;
31262;SDS011;17892;52.080;9.006;2022-11-15T17:11:49;2.55;;;0.88;;
31262;SDS011;17892;52.080;9.006;2022-11-15T17:14:15;2.20;;;1.00;;
31262;SDS011;17892;52.080;9.006;2022-11-15T17:16:41;2.08;;;0.70;;
31262;SDS011;17892;52.080;9.006;2022-11-15T17:19:12;4.63;;;0.90;;
31262;SDS011;17892;52.080;9.006;2022-11-15T17:21:40;2.35;;;0.70;;
31262;SDS011;17892;52.080;9.006;2022-11-15T17:24:07;2.00;;;0.77;;
31262;SDS011;17892;52.080;9.006;2022-11-15T17:26:33;1.60;;;0.60;;
31262;SDS011;17892;52.080;9.006;2022-11-15T17:29:00;2.83;;;0.90;;
31262;SDS011;17892;52.080;9.006;2022-11-15T17:31:26;2.28;;;0.80;;